Startpagina
METAR-TAF:

METAR-TAF

Vliegvelden :

Bonaire International Airport

Bonaire, Nederlandse Antillen

breedte: 12-09N, lengte: 068-17W, hoogte: 6 m

Actueel weer

Dit bericht is 1 uur en het 7 minuten geleden gemaakt, om 20:55 UTC
Wind 18 kt uit het oosten, variërend tussen het noordoosten en het zuidoosten
Temperatuur 30°C
Vochtigheid 70%
Druk 1012 hPa
Zicht 10 km of meer

METAR: TNCB 052055Z AUTO 08018KT 050V130 9999 FEW017/// 30/24 Q1012

Tijdstip: 18:02 (22:02 UTC)

Verwachting

Dit bericht is 4 uur en het 43 minuten geleden gemaakt, om 17:19 UTC
Verwachting geldig van 05 om 18 UTC tot 06 om 24 UTC
Wind 17 kt uit het oosten
Zicht 10 km of meer
Verspreide wolken op 2000 ft
Kans 30% :
Tijdelijke
van 06 om 09 UTC tot 06 om 12 UTC
Zicht: 6000 m
Verspreide wolken op 1800 ft, Cumulonimbus.
Gebroken wolken op 2000 ft
regenbuien

TAF: TNCB 051719Z 0518/0624 09017KT 9999 SCT020 PROB30 TEMPO 0609/0612 6000 SHRA SCT018CB BKN020

Waarnemingen en weersverwachtingen van meer dan 4000 vliegvelden (METAR en TAF).

De beschikbare stations zijn de gele en rode punten op de kaart.

Ga met uw muis naar het station om de naam te zien.

Klik dan om waarnemingen en weersverwachtingen te zien.

kaart wijzigen: klik op de groene knoppen met een zwart kruis om in te zoomen, op de groene knop met een streepje om uit te zoomen of op de groene pijlen voor aangrenzende kaarten.


METAR-TAF: